createdAt,value
2022-12-23T00:00:58.101Z,96222.29
2022-12-23T00:03:28.805Z,96219.88
2022-12-23T00:05:59.229Z,96218.70
2022-12-23T00:08:31.276Z,96216.50
2022-12-23T00:11:00.948Z,96213.23
2022-12-23T00:13:50.819Z,96219.80
2022-12-23T00:16:20.526Z,96214.48
2022-12-23T00:18:50.266Z,96216.75
2022-12-23T00:21:19.992Z,96219.44
2022-12-23T00:23:53.343Z,96214.70
2022-12-23T00:26:26.068Z,96212.66
2022-12-23T00:29:03.583Z,96215.30
2022-12-23T00:31:35.367Z,96212.44
2022-12-23T00:34:05.084Z,96212.54
2022-12-23T00:36:34.849Z,96216.16
2022-12-23T00:39:23.572Z,96216.59
2022-12-23T00:42:12.814Z,96212.95
2022-12-23T00:44:43.005Z,96213.80
2022-12-23T00:47:34.137Z,96208.91
2022-12-23T00:50:03.311Z,96210.52
2022-12-23T00:52:33.057Z,96208.84
2022-12-23T00:55:02.910Z,96213.29
2022-12-23T00:57:32.877Z,96213.25
2022-12-23T01:00:02.914Z,96212.20
2022-12-23T01:02:52.612Z,96211.73
2022-12-23T01:05:38.252Z,96203.05
2022-12-23T01:08:12.551Z,96197.35
2022-12-23T01:10:42.817Z,96192.83
2022-12-23T01:13:12.590Z,96193.08
2022-12-23T01:15:42.310Z,96191.85
2022-12-23T01:18:12.379Z,96195.19
2022-12-23T01:20:42.417Z,96189.41
2022-12-23T01:23:12.490Z,96192.11
2022-12-23T01:25:41.028Z,96192.05
2022-12-23T01:28:09.627Z,96186.42
2022-12-23T01:30:39.546Z,96185.89
2022-12-23T01:33:09.321Z,96187.91
2022-12-23T01:35:39.045Z,96190.61
2022-12-23T01:38:09.391Z,96187.00
2022-12-23T01:40:41.637Z,96182.89
2022-12-23T01:43:18.375Z,96180.20
2022-12-23T01:45:50.021Z,96180.70
2022-12-23T01:48:27.616Z,96179.73
2022-12-23T01:51:03.933Z,96176.59
2022-12-23T01:53:41.145Z,96175.94
2022-12-23T01:56:27.187Z,96177.67
2022-12-23T01:59:03.570Z,96177.73
2022-12-23T02:01:53.378Z,96173.66
2022-12-23T02:04:26.270Z,96167.07
2022-12-23T02:07:16.528Z,96163.66
2022-12-23T02:09:46.653Z,96168.45
2022-12-23T02:12:43.421Z,96164.88
2022-12-23T02:15:57.994Z,96165.95
2022-12-23T02:18:52.508Z,96171.53
2022-12-23T02:21:59.782Z,96172.20
2022-12-23T02:24:57.747Z,96174.89
2022-12-23T02:27:33.950Z,96175.09
2022-12-23T02:30:25.908Z,96169.30
2022-12-23T02:33:08.161Z,96160.98
2022-12-23T02:35:56.260Z,96158.40
2022-12-23T02:38:34.990Z,96169.54
2022-12-23T02:41:29.472Z,96171.52
2022-12-23T02:44:10.643Z,96172.48
2022-12-23T02:46:51.498Z,96176.02
2022-12-23T02:49:46.001Z,96173.91
2022-12-23T02:52:19.416Z,96173.11
2022-12-23T02:54:57.116Z,96167.77
2022-12-23T02:57:35.545Z,96171.52
2022-12-23T03:00:08.235Z,96177.42
2022-12-23T03:02:40.688Z,96176.76
2022-12-23T03:05:30.208Z,96177.31
2022-12-23T03:08:03.780Z,96172.17
2022-12-23T03:10:57.505Z,96171.45
2022-12-23T03:13:39.160Z,96170.71
2022-12-23T03:16:25.153Z,96173.11
2022-12-23T03:19:24.998Z,96180.98
2022-12-23T03:22:08.012Z,96180.78
2022-12-23T03:25:14.648Z,96180.92
2022-12-23T03:28:13.763Z,96174.91
2022-12-23T03:30:47.930Z,96170.48
2022-12-23T03:33:23.052Z,96171.87
2022-12-23T03:36:08.049Z,96170.11
2022-12-23T03:38:41.275Z,96168.23
2022-12-23T03:41:20.686Z,96164.48
2022-12-23T03:44:03.414Z,96164.41
2022-12-23T03:46:42.119Z,96158.43
2022-12-23T03:49:30.714Z,96153.98
2022-12-23T03:52:11.754Z,96156.45
2022-12-23T03:54:51.429Z,96158.81
2022-12-23T03:57:26.695Z,96155.77
2022-12-23T03:59:57.269Z,96154.73
2022-12-23T04:02:58.871Z,96151.33
2022-12-23T04:05:37.989Z,96156.52
2022-12-23T04:08:22.732Z,96156.84
2022-12-23T04:10:52.917Z,96162.08
2022-12-23T04:13:22.618Z,96166.33
2022-12-23T04:15:52.268Z,96170.03
2022-12-23T04:18:21.962Z,96163.94
2022-12-23T04:20:52.096Z,96165.71
2022-12-23T04:23:21.781Z,96164.63
2022-12-23T04:25:51.025Z,96166.70
2022-12-23T04:28:21.146Z,96171.92
2022-12-23T04:30:50.518Z,96178.43
2022-12-23T04:33:22.358Z,96184.03
2022-12-23T04:35:52.032Z,96178.83
2022-12-23T04:38:21.559Z,96179.66
2022-12-23T04:40:50.149Z,96183.40
2022-12-23T04:43:18.708Z,96191.60
2022-12-23T04:45:52.303Z,96189.27
2022-12-23T04:48:22.010Z,96180.52
2022-12-23T04:50:51.839Z,96180.05
2022-12-23T04:53:20.724Z,96183.27
2022-12-23T04:55:53.287Z,96183.00
2022-12-23T04:58:25.395Z,96181.14
2022-12-23T05:01:08.782Z,96180.66
2022-12-23T05:03:41.116Z,96178.46
2022-12-23T05:06:13.273Z,96181.56
2022-12-23T05:08:43.473Z,96180.76
2022-12-23T05:11:13.648Z,96176.88
2022-12-23T05:13:43.435Z,96174.07
2022-12-23T05:16:13.313Z,96172.39
2022-12-23T05:18:43.341Z,96171.64
2022-12-23T05:21:13.132Z,96171.23
2022-12-23T05:23:42.855Z,96170.05
2022-12-23T05:26:12.894Z,96168.81
2022-12-23T05:28:44.276Z,96172.61
2022-12-23T05:31:14.706Z,96176.99
2022-12-23T05:33:45.159Z,96179.08
2022-12-23T05:36:15.068Z,96176.56
2022-12-23T05:38:45.247Z,96168.80
2022-12-23T05:41:16.339Z,96167.20
2022-12-23T05:43:45.389Z,96178.31
2022-12-23T05:46:16.260Z,96177.27
2022-12-23T05:48:49.722Z,96168.92
2022-12-23T05:51:18.170Z,96172.58
2022-12-23T05:53:48.869Z,96171.82
2022-12-23T05:56:18.975Z,96170.48
2022-12-23T05:58:48.529Z,96172.84
2022-12-23T06:01:20.604Z,96172.48
2022-12-23T06:03:50.722Z,96174.31
2022-12-23T06:06:20.746Z,96174.46
2022-12-23T06:08:55.763Z,96174.63
2022-12-23T06:11:29.955Z,96178.32
2022-12-23T06:13:59.627Z,96179.52
2022-12-23T06:16:29.814Z,96179.33
2022-12-23T06:18:59.597Z,96175.23
2022-12-23T06:21:29.615Z,96176.92
2022-12-23T06:23:59.100Z,96181.04
2022-12-23T06:26:29.063Z,96189.05
2022-12-23T06:28:58.817Z,96189.27
2022-12-23T06:31:28.975Z,96190.52
2022-12-23T06:33:59.107Z,96185.54
2022-12-23T06:36:28.644Z,96185.83
2022-12-23T06:38:58.914Z,96191.96
2022-12-23T06:41:29.019Z,96191.85
2022-12-23T06:43:59.160Z,96194.98
2022-12-23T06:46:28.976Z,96187.89
2022-12-23T06:48:59.014Z,96182.23
2022-12-23T06:51:29.133Z,96176.20
2022-12-23T06:54:02.516Z,96167.80
2022-12-23T06:56:34.015Z,96170.06
2022-12-23T06:59:03.852Z,96169.54
2022-12-23T07:01:33.660Z,96174.28
2022-12-23T07:04:03.565Z,96174.86
2022-12-23T07:06:33.297Z,96173.92
2022-12-23T07:09:03.544Z,96172.77
2022-12-23T07:11:32.816Z,96170.30
2022-12-23T07:14:02.074Z,96172.97
2022-12-23T07:16:31.044Z,96177.04
2022-12-23T07:18:59.617Z,96186.34
2022-12-23T07:21:30.344Z,96190.61
2022-12-23T07:24:00.657Z,96194.29
2022-12-23T07:26:30.666Z,96196.27
2022-12-23T07:29:00.640Z,96190.17
2022-12-23T07:31:30.642Z,96186.50
2022-12-23T07:34:00.678Z,96186.66
2022-12-23T07:36:30.070Z,96191.73
2022-12-23T07:38:59.597Z,96189.08
2022-12-23T07:41:30.075Z,96192.19
2022-12-23T07:44:03.236Z,96189.07
2022-12-23T07:46:32.985Z,96183.96
2022-12-23T07:49:02.859Z,96190.23
2022-12-23T07:51:32.707Z,96193.23
2022-12-23T07:54:06.914Z,96193.02
2022-12-23T07:56:36.271Z,96196.58
2022-12-23T07:59:05.499Z,96191.83
2022-12-23T08:01:35.684Z,96191.16
2022-12-23T08:04:06.439Z,96192.09
2022-12-23T08:06:37.260Z,96194.99
2022-12-23T08:09:07.189Z,96202.49
2022-12-23T08:11:38.116Z,96207.59
2022-12-23T08:14:08.207Z,96204.08
2022-12-23T08:16:43.418Z,96207.20
2022-12-23T08:19:13.890Z,96210.52
2022-12-23T08:21:44.073Z,96209.10
2022-12-23T08:24:14.126Z,96207.66
2022-12-23T08:26:44.012Z,96207.88
2022-12-23T08:29:13.317Z,96206.86
2022-12-23T08:31:42.734Z,96208.84
2022-12-23T08:34:12.555Z,96208.13
2022-12-23T08:36:41.871Z,96200.77
2022-12-23T08:39:13.123Z,96197.84
2022-12-23T08:41:46.454Z,96189.33
2022-12-23T08:44:16.652Z,96190.01
2022-12-23T08:46:46.567Z,96190.98
2022-12-23T08:49:15.469Z,96188.17
2022-12-23T08:51:45.982Z,96190.35
2022-12-23T08:54:16.318Z,96182.58
2022-12-23T08:56:45.599Z,96178.88
2022-12-23T08:59:19.588Z,96174.91
2022-12-23T09:01:49.166Z,96174.95
2022-12-23T09:04:20.432Z,96176.27
2022-12-23T09:06:50.400Z,96170.88
2022-12-23T09:09:20.128Z,96165.21
2022-12-23T09:11:49.587Z,96161.18
2022-12-23T09:14:18.857Z,96160.69
2022-12-23T09:16:52.904Z,96159.48
2022-12-23T09:19:22.987Z,96154.38
2022-12-23T09:21:53.201Z,96151.45
2022-12-23T09:24:23.139Z,96147.45
2022-12-23T09:26:53.152Z,96146.07
2022-12-23T09:29:23.648Z,96145.11
2022-12-23T09:31:53.565Z,96143.76
2022-12-23T09:34:24.875Z,96139.60
2022-12-23T09:36:55.647Z,96141.18
2022-12-23T09:39:25.127Z,96143.71
2022-12-23T09:42:02.567Z,96145.02
2022-12-23T09:44:44.861Z,96143.48
2022-12-23T09:47:18.929Z,96144.91
2022-12-23T09:49:53.380Z,96140.88
2022-12-23T09:52:34.257Z,96142.15
2022-12-23T09:55:03.661Z,96145.67
2022-12-23T09:58:07.359Z,96142.95
2022-12-23T10:00:50.921Z,96140.61
2022-12-23T10:03:53.809Z,96135.96
2022-12-23T10:06:28.597Z,96129.98
2022-12-23T10:09:06.242Z,96129.70
2022-12-23T10:11:45.270Z,96131.30
2022-12-23T10:14:27.212Z,96130.30
2022-12-23T10:17:03.319Z,96131.66
2022-12-23T10:19:45.156Z,96138.63
2022-12-23T10:22:40.775Z,96137.64
2022-12-23T10:25:22.892Z,96147.41
2022-12-23T10:27:52.956Z,96152.14
2022-12-23T10:30:56.864Z,96141.89
2022-12-23T10:33:23.127Z,96147.56
2022-12-23T10:36:02.248Z,96141.59
2022-12-23T10:38:40.612Z,96137.13
2022-12-23T10:41:49.419Z,96140.16
2022-12-23T10:44:43.402Z,96141.90
2022-12-23T10:47:55.824Z,96142.42
2022-12-23T10:50:59.352Z,96132.56
2022-12-23T10:53:48.806Z,96129.03
2022-12-23T10:56:20.325Z,96129.70
2022-12-23T10:58:57.265Z,96122.86
2022-12-23T11:01:31.245Z,96123.26
2022-12-23T11:04:20.081Z,96128.64
2022-12-23T11:07:18.131Z,96118.34
2022-12-23T11:09:51.476Z,96111.05
2022-12-23T11:12:26.577Z,96111.08
2022-12-23T11:14:58.229Z,96113.13
2022-12-23T11:17:33.781Z,96112.59
2022-12-23T11:20:13.674Z,96107.09
2022-12-23T11:22:58.771Z,96111.58
2022-12-23T11:25:30.063Z,96114.19
2022-12-23T11:28:12.176Z,96114.22
2022-12-23T11:31:18.917Z,96115.16
2022-12-23T11:33:59.422Z,96111.70
2022-12-23T11:36:32.001Z,96107.33
2022-12-23T11:39:10.675Z,96103.13
2022-12-23T11:41:53.115Z,96101.17
2022-12-23T11:44:36.982Z,96101.79
2022-12-23T11:47:38.563Z,96106.48
2022-12-23T11:50:40.531Z,96113.87
2022-12-23T11:53:23.615Z,96114.79
2022-12-23T11:56:05.567Z,96109.44
2022-12-23T11:58:48.677Z,96111.12
2022-12-23T12:01:20.976Z,96113.76
2022-12-23T12:04:02.893Z,96110.96
2022-12-23T12:06:34.153Z,96111.16
2022-12-23T12:09:05.957Z,96114.13
2022-12-23T12:11:50.043Z,96115.70
2022-12-23T12:14:26.578Z,96115.80
2022-12-23T12:17:16.836Z,96112.46
2022-12-23T12:19:56.558Z,96114.02
2022-12-23T12:22:37.645Z,96115.86
2022-12-23T12:25:19.201Z,96114.08
2022-12-23T12:28:03.365Z,96116.30
2022-12-23T12:30:41.008Z,96117.33
2022-12-23T12:33:34.259Z,96113.49
2022-12-23T12:36:15.553Z,96114.73
2022-12-23T12:38:50.051Z,96124.38
2022-12-23T12:41:31.269Z,96126.29
2022-12-23T12:44:22.802Z,96123.69
2022-12-23T12:46:59.111Z,96113.33
2022-12-23T12:49:59.984Z,96106.75
2022-12-23T12:52:37.045Z,96103.02
2022-12-23T12:55:30.445Z,96098.86
2022-12-23T12:58:03.181Z,96096.76
2022-12-23T13:00:48.824Z,96092.12
2022-12-23T13:03:58.303Z,96097.52
2022-12-23T13:07:02.349Z,96102.52
2022-12-23T13:09:51.354Z,96109.11
2022-12-23T13:12:25.855Z,96112.15
2022-12-23T13:14:58.213Z,96112.52
2022-12-23T13:17:38.929Z,96110.66
2022-12-23T13:20:30.540Z,96108.51
2022-12-23T13:23:41.564Z,96108.84
2022-12-23T13:26:36.046Z,96105.51
2022-12-23T13:29:40.495Z,96105.17
2022-12-23T13:32:42.427Z,96107.07
2022-12-23T13:35:51.136Z,96114.50
2022-12-23T13:38:42.359Z,96118.39
2022-12-23T13:41:17.779Z,96117.79
2022-12-23T13:43:49.340Z,96117.39
2022-12-23T13:46:36.721Z,96129.09
2022-12-23T13:49:40.397Z,96134.97
2022-12-23T13:52:28.926Z,96135.86
2022-12-23T13:55:19.826Z,96141.83
2022-12-23T13:58:25.708Z,96137.63
2022-12-23T14:01:10.200Z,96128.66
2022-12-23T14:03:40.592Z,96126.75
2022-12-23T14:06:24.203Z,96116.77
2022-12-23T14:08:56.048Z,96110.80
2022-12-23T14:11:28.855Z,96120.01
2022-12-23T14:14:01.397Z,96118.41
2022-12-23T14:17:10.469Z,96118.64
2022-12-23T14:20:05.870Z,96128.23
2022-12-23T14:22:54.905Z,96131.77
2022-12-23T14:25:56.974Z,96137.26
2022-12-23T14:28:43.064Z,96134.75
2022-12-23T14:31:34.004Z,96126.06
2022-12-23T14:34:19.324Z,96123.30
2022-12-23T14:37:16.908Z,96110.43
2022-12-23T14:39:46.195Z,96105.88
2022-12-23T14:42:40.889Z,96097.67
2022-12-23T14:45:35.664Z,96099.90
2022-12-23T14:48:37.346Z,96097.80
2022-12-23T14:51:10.905Z,96101.77
2022-12-23T14:54:14.541Z,96105.88
2022-12-23T14:57:05.687Z,96109.66
2022-12-23T15:00:00.099Z,96112.09
2022-12-23T15:02:34.615Z,96108.06
2022-12-23T15:05:05.207Z,96111.27
2022-12-23T15:07:47.201Z,96120.77
2022-12-23T15:10:22.335Z,96123.25
2022-12-23T15:13:03.243Z,96123.23
2022-12-23T15:15:35.699Z,96114.41
2022-12-23T15:18:12.701Z,96107.33
2022-12-23T15:20:42.002Z,96106.58
2022-12-23T15:23:17.155Z,96104.22
2022-12-23T15:25:49.443Z,96101.73
2022-12-23T15:28:25.227Z,96101.13
2022-12-23T15:30:57.411Z,96102.19
2022-12-23T15:36:31.185Z,96106.39
2022-12-23T15:39:04.102Z,96100.92
2022-12-23T15:41:46.303Z,96097.55
2022-12-23T15:44:35.026Z,96102.31
2022-12-23T15:47:32.905Z,96099.70
2022-12-23T15:50:03.356Z,96103.36
2022-12-23T15:52:34.065Z,96107.67
2022-12-23T15:55:29.333Z,96102.02
2022-12-23T15:58:00.184Z,96097.50
2022-12-23T16:00:51.767Z,96092.10
2022-12-23T16:03:35.170Z,96092.64
2022-12-23T16:06:21.936Z,96096.45
2022-12-23T16:09:13.175Z,96104.75
2022-12-23T16:12:00.895Z,96100.07
2022-12-23T16:14:38.751Z,96104.98
2022-12-23T16:17:11.881Z,96106.54
2022-12-23T16:19:49.897Z,96105.15
2022-12-23T16:22:26.097Z,96107.62
2022-12-23T16:25:20.322Z,96103.48
2022-12-23T16:27:57.388Z,96104.17
2022-12-23T16:30:33.290Z,96099.89
2022-12-23T16:33:07.359Z,96100.25
2022-12-23T16:35:42.718Z,96098.34
2022-12-23T16:38:19.379Z,96101.32
2022-12-23T16:40:51.281Z,96093.44
2022-12-23T16:43:22.211Z,96088.06
2022-12-23T16:45:55.520Z,96089.14
2022-12-23T16:48:40.908Z,96095.05
2022-12-23T16:51:18.774Z,96093.02
2022-12-23T16:53:50.445Z,96088.73
2022-12-23T16:56:21.086Z,96084.69
2022-12-23T16:58:51.348Z,96081.73
2022-12-23T17:01:34.296Z,96082.50
2022-12-23T17:04:05.441Z,96085.52
2022-12-23T17:06:37.141Z,96079.02
2022-12-23T17:09:07.589Z,96075.17
2022-12-23T17:11:50.207Z,96074.06
2022-12-23T17:14:22.904Z,96069.98
2022-12-23T17:16:52.986Z,96071.23
2022-12-23T17:19:28.571Z,96071.91
2022-12-23T17:22:03.453Z,96076.90
2022-12-23T17:24:33.015Z,96077.27
2022-12-23T17:27:05.472Z,96075.70
2022-12-23T17:29:33.975Z,96074.29
2022-12-23T17:32:04.160Z,96070.00
2022-12-23T17:34:33.878Z,96073.60
2022-12-23T17:37:03.664Z,96071.90
2022-12-23T17:39:32.319Z,96078.51
2022-12-23T17:42:02.674Z,96080.11
2022-12-23T17:44:32.798Z,96075.85
2022-12-23T17:47:02.940Z,96071.98
2022-12-23T17:49:32.811Z,96071.16
2022-12-23T17:52:02.446Z,96069.77
2022-12-23T17:54:32.197Z,96065.88
2022-12-23T17:57:02.422Z,96062.17
2022-12-23T17:59:32.218Z,96057.92
2022-12-23T18:02:04.286Z,96059.73
2022-12-23T18:04:37.247Z,96051.05
2022-12-23T18:07:06.878Z,96046.04
2022-12-23T18:09:36.982Z,96045.42
2022-12-23T18:12:06.833Z,96043.56
2022-12-23T18:14:36.879Z,96048.20
2022-12-23T18:17:08.628Z,96044.52
2022-12-23T18:19:38.310Z,96046.71
2022-12-23T18:22:19.134Z,96049.46
2022-12-23T18:24:58.906Z,96055.77
2022-12-23T18:27:29.672Z,96055.84
2022-12-23T18:29:58.992Z,96062.48
2022-12-23T18:32:29.480Z,96057.19
2022-12-23T18:34:59.452Z,96062.34
2022-12-23T18:37:29.240Z,96060.17
2022-12-23T18:39:59.016Z,96055.63
2022-12-23T18:42:28.656Z,96056.19
2022-12-23T18:44:57.166Z,96053.00
2022-12-23T18:47:26.483Z,96047.14
2022-12-23T18:49:56.203Z,96050.69
2022-12-23T18:52:26.774Z,96056.70
2022-12-23T18:54:56.637Z,96053.66
2022-12-23T18:57:26.411Z,96050.52
2022-12-23T18:59:56.271Z,96046.31
2022-12-23T19:02:24.833Z,96048.99
2022-12-23T19:04:54.706Z,96055.17
2022-12-23T19:07:24.534Z,96055.42
2022-12-23T19:09:54.529Z,96050.98
2022-12-23T19:12:23.138Z,96058.02
2022-12-23T19:14:52.858Z,96058.60
2022-12-23T19:17:24.655Z,96057.71
2022-12-23T19:19:54.806Z,96051.67
2022-12-23T19:22:25.415Z,96052.58
2022-12-23T19:25:05.466Z,96051.14
2022-12-23T19:27:36.054Z,96047.96
2022-12-23T19:30:07.375Z,96049.48
2022-12-23T19:32:36.742Z,96045.73
2022-12-23T19:35:06.586Z,96042.27
2022-12-23T19:37:38.723Z,96041.23
2022-12-23T19:40:09.517Z,96039.85
2022-12-23T19:42:41.795Z,96043.05
2022-12-23T19:45:12.400Z,96041.85
2022-12-23T19:47:42.473Z,96042.36
2022-12-23T19:50:12.762Z,96041.64
2022-12-23T19:52:44.046Z,96046.29
2022-12-23T19:55:13.820Z,96048.33
2022-12-23T19:57:44.039Z,96051.23
2022-12-23T20:00:16.349Z,96048.55
2022-12-23T20:02:46.440Z,96042.86
2022-12-23T20:05:16.230Z,96040.35
2022-12-23T20:07:46.414Z,96032.27
2022-12-23T20:10:16.235Z,96037.92
2022-12-23T20:12:46.275Z,96038.60
2022-12-23T20:15:16.046Z,96038.17
2022-12-23T20:17:46.086Z,96041.55
2022-12-23T20:20:15.386Z,96033.30
2022-12-23T20:22:44.937Z,96036.36
2022-12-23T20:25:15.013Z,96044.09
2022-12-23T20:27:45.071Z,96048.27
2022-12-23T20:30:15.060Z,96049.47
2022-12-23T20:32:45.093Z,96052.19
2022-12-23T20:35:14.451Z,96052.45
2022-12-23T20:37:44.105Z,96060.66
2022-12-23T20:40:15.924Z,96050.02
2022-12-23T20:42:46.403Z,96044.00
2022-12-23T20:45:14.968Z,96048.61
2022-12-23T20:47:47.684Z,96044.02
2022-12-23T20:50:16.310Z,96051.59
2022-12-23T20:52:46.005Z,96051.67
2022-12-23T20:55:15.355Z,96053.33
2022-12-23T20:57:47.727Z,96050.17
2022-12-23T21:00:18.000Z,96054.49
2022-12-23T21:02:48.107Z,96060.23
2022-12-23T21:05:17.028Z,96064.55
2022-12-23T21:07:46.442Z,96072.56
2022-12-23T21:10:16.365Z,96072.20
2022-12-23T21:12:46.507Z,96062.42
2022-12-23T21:15:15.872Z,96064.51
2022-12-23T21:17:46.094Z,96065.84
2022-12-23T21:20:16.221Z,96069.90
2022-12-23T21:22:46.660Z,96063.84
2022-12-23T21:25:16.899Z,96060.50
2022-12-23T21:27:46.125Z,96061.13
2022-12-23T21:30:16.267Z,96074.70
2022-12-23T21:32:46.567Z,96063.08
2022-12-23T21:35:16.709Z,96054.52
2022-12-23T21:37:46.150Z,96051.02
2022-12-23T21:40:16.025Z,96045.19
2022-12-23T21:42:46.180Z,96042.20
2022-12-23T21:45:16.155Z,96041.81
2022-12-23T21:47:44.651Z,96045.28
2022-12-23T21:50:14.850Z,96047.65
2022-12-23T21:52:43.699Z,96052.37
2022-12-23T21:55:16.506Z,96050.39
2022-12-23T21:57:47.173Z,96054.21
2022-12-23T22:00:17.465Z,96048.33
2022-12-23T22:02:47.588Z,96049.73
2022-12-23T22:05:18.024Z,96049.02
2022-12-23T22:07:48.042Z,96045.45
2022-12-23T22:10:17.931Z,96045.70
2022-12-23T22:12:48.075Z,96047.70
2022-12-23T22:15:17.934Z,96046.47
2022-12-23T22:17:47.535Z,96055.30
2022-12-23T22:20:16.809Z,96044.72
2022-12-23T22:22:46.799Z,96042.79
2022-12-23T22:25:16.219Z,96044.15
2022-12-23T22:27:46.231Z,96039.27
2022-12-23T22:30:16.226Z,96029.95
2022-12-23T22:32:46.236Z,96028.45
2022-12-23T22:35:15.518Z,96016.71
2022-12-23T22:37:45.572Z,96026.14
2022-12-23T22:40:15.866Z,96017.02
2022-12-23T22:42:46.050Z,96016.47
2022-12-23T22:45:15.784Z,96022.60
2022-12-23T22:47:45.917Z,96016.98
2022-12-23T22:50:14.421Z,96014.55
2022-12-23T22:52:45.021Z,95999.07
2022-12-23T22:55:14.413Z,95994.27
2022-12-23T22:57:44.468Z,95993.14
2022-12-23T23:00:14.512Z,95999.31
2022-12-23T23:02:44.551Z,96004.91
2022-12-23T23:05:14.462Z,96008.29
2022-12-23T23:07:44.552Z,96011.67
2022-12-23T23:10:15.412Z,96012.36
2022-12-23T23:12:45.363Z,96005.57
2022-12-23T23:15:14.760Z,96000.98
2022-12-23T23:17:44.793Z,96002.58
2022-12-23T23:20:14.397Z,96008.67
2022-12-23T23:22:45.012Z,96004.44
2022-12-23T23:25:14.239Z,96005.91
2022-12-23T23:27:44.184Z,96010.98
2022-12-23T23:30:14.355Z,96013.46
2022-12-23T23:32:43.689Z,96019.30
2022-12-23T23:35:13.593Z,96015.70
2022-12-23T23:37:43.183Z,96012.52
2022-12-23T23:40:13.898Z,96009.66
2022-12-23T23:42:43.240Z,96007.20
2022-12-23T23:45:13.665Z,96005.88
2022-12-23T23:47:42.235Z,96005.14
2022-12-23T23:50:13.058Z,96003.84
2022-12-23T23:52:42.537Z,96014.28
2022-12-23T23:55:11.858Z,96014.94
2022-12-23T23:57:41.909Z,96014.09
